Time;durP1;ratioP1;P1;durP2;ratioP2;P2;SDS_P1;SDS_P2;PMS_P1;PMS_P2;Temp;Humidity;BMP_temperature;BMP_pressure;BME280_temperature;BME280_humidity;BME280_pressure;Samples;Min_cycle;Max_cycle;Signal;HPM_P1;HPM_P2
2022/07/28 00:01:41;;;;;;;1.90;1.17;;;10.10;99.90;;;;;;5015104;28;20053;-68
2022/07/28 00:04:07;;;;;;;1.27;0.70;;;10.00;99.90;;;;;;5015860;28;20052;-68
2022/07/28 00:06:32;;;;;;;2.00;0.85;;;10.00;99.90;;;;;;5014974;28;20085;-68
2022/07/28 00:08:58;;;;;;;1.40;0.70;;;9.90;99.90;;;;;;5014772;28;20136;-69
2022/07/28 00:11:24;;;;;;;1.75;0.90;;;9.90;99.90;;;;;;4997932;28;20053;-68
2022/07/28 00:13:50;;;;;;;1.60;0.80;;;10.00;99.90;;;;;;5014892;28;20046;-69
2022/07/28 00:16:15;;;;;;;1.98;0.70;;;10.10;99.90;;;;;;5015678;28;20046;-69
2022/07/28 00:18:41;;;;;;;2.65;1.00;;;10.00;99.90;;;;;;5014809;28;20050;-68
2022/07/28 00:21:07;;;;;;;2.03;0.70;;;9.90;99.90;;;;;;5014800;28;20100;-68
2022/07/28 00:23:32;;;;;;;2.53;0.70;;;9.90;99.90;;;;;;5015046;28;20172;-68
2022/07/28 00:25:58;;;;;;;2.55;0.70;;;10.00;99.90;;;;;;5014578;28;20065;-68
2022/07/28 00:28:24;;;;;;;1.75;0.80;;;10.00;99.90;;;;;;5014652;28;20053;-68
2022/07/28 00:30:49;;;;;;;1.77;0.90;;;10.00;99.90;;;;;;5014590;28;20050;-68
2022/07/28 00:33:15;;;;;;;2.45;0.90;;;10.00;99.90;;;;;;5014661;28;20053;-68
2022/07/28 00:35:41;;;;;;;1.75;0.80;;;10.00;99.90;;;;;;5014984;28;20088;-68
2022/07/28 00:38:06;;;;;;;2.15;0.80;;;9.90;99.90;;;;;;5014661;28;20045;-68
2022/07/28 00:43:16;;;;;;;2.30;0.80;;;10.10;99.90;;;;;;5014916;28;20060;-68
2022/07/28 00:45:42;;;;;;;1.90;0.90;;;10.20;99.90;;;;;;4996894;28;20049;-68
2022/07/28 00:48:08;;;;;;;1.83;0.80;;;10.10;99.90;;;;;;5015083;28;20447;-69
2022/07/28 00:50:34;;;;;;;2.22;0.80;;;10.20;99.90;;;;;;5013987;28;20046;-69
2022/07/28 00:53:00;;;;;;;2.75;0.90;;;10.30;99.90;;;;;;5014561;28;20084;-69
2022/07/28 00:55:26;;;;;;;1.95;0.85;;;10.40;99.90;;;;;;5014163;28;20041;-68
2022/07/28 00:57:51;;;;;;;1.30;0.60;;;10.40;99.90;;;;;;5013904;28;20096;-69
2022/07/28 01:00:17;;;;;;;2.17;0.90;;;10.50;99.90;;;;;;5014312;28;20085;-69
2022/07/28 01:02:45;;;;;;;2.08;0.80;;;10.40;99.90;;;;;;5016261;28;20045;-69
2022/07/28 01:05:13;;;;;;;3.20;1.00;;;10.50;99.90;;;;;;5016135;28;20387;-68
2022/07/28 01:07:49;;;;;;;1.85;0.70;;;10.50;99.90;;;;;;5014550;28;20434;-68
2022/07/28 01:10:24;;;;;;;1.93;0.70;;;10.60;99.90;;;;;;5014011;28;20046;-68
2022/07/28 01:13:21;;;;;;;2.28;0.80;;;10.60;99.90;;;;;;5014365;28;20049;-68
2022/07/28 01:15:57;;;;;;;2.17;1.05;;;10.60;99.90;;;;;;4985712;28;20057;-68
2022/07/28 01:18:26;;;;;;;1.50;0.60;;;10.60;99.90;;;;;;5014602;28;20125;-69
2022/07/28 01:21:03;;;;;;;6.25;1.17;;;10.60;99.90;;;;;;5013827;28;20050;-68
2022/07/28 01:23:32;;;;;;;1.50;0.82;;;10.60;99.90;;;;;;5014655;28;20376;-69
2022/07/28 01:26:42;;;;;;;1.98;0.82;;;10.60;99.90;;;;;;5013868;28;20060;-69
2022/07/28 01:29:20;;;;;;;1.55;0.80;;;10.60;99.90;;;;;;4982890;28;20057;-69
2022/07/28 01:32:00;;;;;;;1.88;0.90;;;10.50;99.90;;;;;;5014018;28;20056;-69
2022/07/28 01:34:44;;;;;;;1.30;0.75;;;10.60;99.90;;;;;;5013765;28;20471;-69
2022/07/28 01:37:12;;;;;;;1.52;0.90;;;10.60;99.90;;;;;;5013674;28;20034;-69
2022/07/28 01:39:41;;;;;;;2.88;0.80;;;10.60;99.90;;;;;;5013524;28;20050;-72
2022/07/28 01:42:11;;;;;;;1.80;0.70;;;10.60;99.90;;;;;;5013387;28;20057;-72
2022/07/28 01:44:40;;;;;;;1.63;0.85;;;10.60;99.90;;;;;;5013450;28;20049;-72
2022/07/28 01:47:08;;;;;;;1.35;0.70;;;10.60;99.90;;;;;;5013410;28;20049;-73
2022/07/28 01:49:34;;;;;;;2.42;0.80;;;10.50;99.90;;;;;;5013447;28;20046;-72
2022/07/28 01:52:04;;;;;;;1.40;0.63;;;10.40;99.90;;;;;;5013477;28;20054;-72
2022/07/28 01:54:30;;;;;;;2.47;0.70;;;10.30;99.90;;;;;;5013057;28;20553;-72
2022/07/28 01:56:59;;;;;;;1.25;0.60;;;10.30;99.90;;;;;;4996877;28;20425;-72
2022/07/28 01:59:28;;;;;;;2.92;1.15;;;10.20;99.90;;;;;;5014181;28;20045;-72
2022/07/28 02:01:54;;;;;;;3.83;0.90;;;10.10;99.90;;;;;;4995898;28;20093;-73
2022/07/28 02:04:22;;;;;;;1.73;0.80;;;9.90;99.90;;;;;;5013113;28;20050;-72
2022/07/28 02:06:51;;;;;;;1.38;0.60;;;9.80;99.90;;;;;;5013221;28;20081;-72
2022/07/28 02:09:20;;;;;;;2.00;0.90;;;9.70;99.90;;;;;;5014462;28;20220;-72
2022/07/28 02:11:46;;;;;;;1.63;0.80;;;9.50;99.90;;;;;;5013339;28;20494;-72
2022/07/28 02:14:16;;;;;;;4.53;1.45;;;9.40;99.90;;;;;;5015224;28;20129;-72
2022/07/28 02:16:45;;;;;;;1.23;0.60;;;9.40;99.90;;;;;;4999738;28;20050;-72
2022/07/28 02:19:13;;;;;;;2.72;0.80;;;9.40;99.90;;;;;;5017069;28;20396;-72
2022/07/28 02:21:40;;;;;;;1.50;0.80;;;9.30;99.90;;;;;;5017004;28;20045;-72
2022/07/28 02:24:07;;;;;;;1.65;0.75;;;9.40;99.90;;;;;;5017206;28;20180;-72
2022/07/28 02:26:40;;;;;;;1.70;0.80;;;9.50;99.90;;;;;;5016570;28;20398;-72
2022/07/28 02:29:09;;;;;;;1.10;0.60;;;9.50;99.90;;;;;;5017678;28;20045;-72
2022/07/28 02:31:45;;;;;;;2.95;0.90;;;9.60;99.90;;;;;;5016789;28;20116;-72
2022/07/28 02:34:13;;;;;;;3.30;0.90;;;9.40;99.90;;;;;;5016864;28;20089;-72
2022/07/28 02:36:49;;;;;;;1.58;0.80;;;9.40;99.90;;;;;;5016772;28;20046;-72
2022/07/28 02:39:20;;;;;;;1.52;0.80;;;9.30;99.90;;;;;;5017245;28;20046;-72
2022/07/28 02:41:54;;;;;;;2.30;0.90;;;9.40;99.90;;;;;;4999707;28;20046;-72
2022/07/28 02:44:30;;;;;;;2.05;0.80;;;9.50;99.90;;;;;;5016657;28;20050;-72
2022/07/28 02:46:57;;;;;;;1.40;0.70;;;9.50;99.90;;;;;;5017059;28;20085;-72
2022/07/28 02:49:32;;;;;;;2.00;0.90;;;9.50;99.90;;;;;;5016498;28;20155;-72
2022/07/28 02:52:00;;;;;;;2.72;0.82;;;9.60;99.90;;;;;;5016472;28;20057;-72
2022/07/28 02:54:27;;;;;;;1.65;0.88;;;9.60;99.90;;;;;;5016366;28;20046;-72
2022/07/28 02:56:57;;;;;;;1.17;0.60;;;9.70;99.90;;;;;;5016346;28;20125;-72
2022/07/28 02:59:23;;;;;;;2.20;0.88;;;9.80;99.90;;;;;;5016317;28;20052;-72
2022/07/28 03:01:50;;;;;;;1.67;0.80;;;9.80;99.90;;;;;;4999351;28;20056;-72
2022/07/28 03:04:55;;;;;;;1.60;0.80;;;9.90;99.90;;;;;;5016991;28;20387;-72
2022/07/28 03:07:06;;;;;;;2.58;0.93;;;9.90;99.90;;;;;;5015809;28;20077;-72
2022/07/28 03:09:45;;;;;;;1.67;1.08;;;9.80;99.90;;;;;;5016098;28;20062;-72
2022/07/28 03:12:12;;;;;;;1.58;0.75;;;9.80;99.90;;;;;;5016001;28;20042;-72
2022/07/28 03:14:38;;;;;;;1.90;1.05;;;9.80;99.90;;;;;;5016579;28;20429;-72
2022/07/28 03:17:04;;;;;;;1.73;0.88;;;9.70;99.90;;;;;;5016491;28;20037;-72
2022/07/28 03:19:30;;;;;;;2.15;0.73;;;9.70;99.90;;;;;;5015929;28;20052;-72
2022/07/28 03:21:55;;;;;;;2.42;0.90;;;9.60;99.90;;;;;;5016118;28;20129;-72
2022/07/28 03:24:24;;;;;;;1.65;0.75;;;9.50;99.90;;;;;;5015983;28;20372;-72
2022/07/28 03:27:10;;;;;;;2.47;0.80;;;9.40;99.90;;;;;;5015741;28;20085;-72
2022/07/28 03:29:37;;;;;;;1.67;0.90;;;9.40;99.90;;;;;;5015855;28;20054;-72
2022/07/28 03:32:03;;;;;;;2.35;1.17;;;9.40;99.90;;;;;;5016528;28;20057;-72
2022/07/28 03:34:29;;;;;;;1.73;0.95;;;9.40;99.90;;;;;;5015731;28;20062;-72
2022/07/28 03:37:10;;;;;;;4.88;1.17;;;9.50;99.90;;;;;;5016207;28;20422;-72
2022/07/28 03:39:42;;;;;;;1.92;0.90;;;9.50;99.90;;;;;;5015431;28;20141;-72
2022/07/28 03:42:09;;;;;;;3.10;0.93;;;9.50;99.90;;;;;;4997867;28;20549;-72
2022/07/28 03:44:38;;;;;;;1.77;0.90;;;9.60;99.90;;;;;;5014493;28;20053;-72
2022/07/28 03:47:04;;;;;;;3.92;1.90;;;9.60;99.90;;;;;;5014458;28;20049;-72
2022/07/28 03:49:29;;;;;;;2.85;1.00;;;9.60;99.90;;;;;;5015319;28;20058;-72
2022/07/28 03:51:55;;;;;;;1.73;0.93;;;9.70;99.90;;;;;;5015226;28;20049;-72
2022/07/28 03:54:21;;;;;;;3.20;0.90;;;9.70;99.90;;;;;;5015171;28;20037;-72
2022/07/28 03:56:46;;;;;;;1.73;0.98;;;9.70;99.90;;;;;;5015109;28;20050;-72
2022/07/28 03:59:12;;;;;;;2.38;1.10;;;9.80;99.90;;;;;;5015636;28;20356;-72
2022/07/28 04:01:38;;;;;;;2.00;0.98;;;10.00;99.90;;;;;;5015202;28;20050;-72
2022/07/28 04:04:04;;;;;;;2.28;1.08;;;9.80;99.90;;;;;;5015146;28;20482;-72
2022/07/28 04:06:30;;;;;;;2.58;1.00;;;9.70;99.90;;;;;;5014976;28;20048;-72
2022/07/28 04:08:55;;;;;;;2.58;1.02;;;9.70;99.90;;;;;;4997659;28;20144;-72
2022/07/28 04:11:22;;;;;;;1.60;0.98;;;9.60;99.90;;;;;;5014602;28;20116;-72
2022/07/28 04:13:47;;;;;;;2.28;1.20;;;9.70;99.90;;;;;;4997600;28;20054;-72
2022/07/28 04:16:13;;;;;;;1.40;0.70;;;9.70;99.90;;;;;;4997608;28;20058;-72
2022/07/28 04:18:39;;;;;;;1.50;0.82;;;9.70;99.90;;;;;;5014845;28;20050;-72
2022/07/28 04:21:05;;;;;;;2.83;1.08;;;9.50;99.90;;;;;;5014732;28;20064;-72
2022/07/28 04:23:31;;;;;;;2.20;1.10;;;9.20;99.90;;;;;;4997357;28;20129;-73
2022/07/28 04:25:57;;;;;;;4.30;0.90;;;9.00;99.90;;;;;;4997063;28;20046;-73
2022/07/28 04:28:23;;;;;;;1.38;0.60;;;8.90;99.90;;;;;;5014678;28;20101;-73
2022/07/28 04:30:49;;;;;;;1.13;0.63;;;8.70;99.90;;;;;;5014812;28;20483;-72
2022/07/28 04:33:14;;;;;;;2.00;0.70;;;8.70;99.90;;;;;;5015387;28;20050;-73
2022/07/28 04:35:40;;;;;;;1.55;0.88;;;8.70;99.90;;;;;;5013983;28;20049;-72
2022/07/28 04:38:06;;;;;;;2.35;1.20;;;8.80;99.90;;;;;;4997877;28;20049;-73
2022/07/28 04:40:33;;;;;;;1.80;0.90;;;8.80;99.90;;;;;;5014552;28;20052;-72
2022/07/28 04:42:59;;;;;;;2.03;1.10;;;8.90;99.90;;;;;;5014804;28;20125;-72
2022/07/28 04:45:25;;;;;;;1.80;1.00;;;8.90;99.90;;;;;;5014301;28;20376;-73
2022/07/28 04:47:52;;;;;;;3.53;1.50;;;8.90;99.90;;;;;;5014987;28;20158;-72
2022/07/28 04:50:20;;;;;;;2.65;1.00;;;9.10;99.90;;;;;;5014238;28;20494;-72
2022/07/28 04:52:48;;;;;;;2.65;0.88;;;9.20;99.90;;;;;;5014204;28;20046;-72
2022/07/28 04:55:14;;;;;;;1.67;0.98;;;9.20;99.90;;;;;;5014198;28;20046;-72
2022/07/28 04:57:40;;;;;;;2.97;1.08;;;9.40;99.90;;;;;;5013802;28;20426;-72
2022/07/28 05:00:11;;;;;;;1.90;0.90;;;10.00;99.90;;;;;;5014833;28;20053;-72
2022/07/28 05:02:37;;;;;;;4.47;1.08;;;9.70;99.90;;;;;;5014014;28;20884;-72
2022/07/28 05:05:03;;;;;;;1.90;1.10;;;9.90;99.90;;;;;;5014063;28;20046;-72
2022/07/28 05:07:29;;;;;;;2.90;1.23;;;10.00;99.90;;;;;;5013626;28;20066;-72
2022/07/28 05:09:54;;;;;;;3.30;1.13;;;10.10;99.90;;;;;;5013687;28;20049;-72
2022/07/28 05:12:20;;;;;;;1.98;1.10;;;10.20;99.90;;;;;;5013872;28;20046;-72
2022/07/28 05:14:46;;;;;;;2.50;1.20;;;10.30;99.90;;;;;;5013900;28;20046;-72
2022/07/28 05:17:12;;;;;;;3.55;1.23;;;10.40;99.90;;;;;;5013843;28;20052;-72
2022/07/28 05:19:38;;;;;;;2.80;1.15;;;10.60;99.90;;;;;;4996268;28;20054;-72
2022/07/28 05:22:04;;;;;;;2.92;1.15;;;10.70;99.90;;;;;;4997252;28;20052;-72
2022/07/28 05:24:30;;;;;;;2.95;1.30;;;10.90;99.90;;;;;;5013802;28;20128;-72
2022/07/28 05:26:56;;;;;;;3.45;1.30;;;11.10;99.90;;;;;;5013304;28;20573;-72
2022/07/28 05:29:22;;;;;;;2.60;1.67;;;11.30;99.90;;;;;;5013335;28;20166;-73
2022/07/28 05:31:48;;;;;;;2.53;1.70;;;11.40;99.90;;;;;;5014106;28;20061;-72
2022/07/28 05:34:14;;;;;;;3.03;1.80;;;11.60;99.90;;;;;;4996581;28;20089;-72
2022/07/28 05:36:39;;;;;;;3.75;2.15;;;11.70;99.90;;;;;;5013592;28;20042;-72
2022/07/28 05:39:05;;;;;;;4.05;2.30;;;11.90;99.90;;;;;;5013524;28;20442;-72
2022/07/28 05:41:31;;;;;;;3.60;2.10;;;12.00;99.90;;;;;;5013468;28;20052;-72
2022/07/28 05:43:57;;;;;;;4.70;2.42;;;12.10;99.90;;;;;;5013565;28;20498;-72
2022/07/28 05:46:23;;;;;;;3.85;2.40;;;12.30;99.90;;;;;;5013376;28;20045;-73
2022/07/28 05:48:50;;;;;;;3.88;1.90;;;12.40;99.90;;;;;;5013816;28;20045;-73
2022/07/28 05:51:16;;;;;;;3.15;2.05;;;12.50;99.90;;;;;;4996427;28;20050;-73
2022/07/28 05:53:41;;;;;;;4.57;2.42;;;12.70;99.90;;;;;;5013900;28;20515;-73
2022/07/28 05:56:07;;;;;;;4.53;2.10;;;12.80;99.90;;;;;;4995969;28;20049;-72
2022/07/28 05:58:33;;;;;;;4.78;2.05;;;12.90;99.90;;;;;;4996511;28;20053;-73
2022/07/28 06:01:00;;;;;;;4.45;2.40;;;13.10;99.90;;;;;;4995789;28;20132;-72
2022/07/28 06:03:27;;;;;;;4.40;2.40;;;13.20;99.90;;;;;;5013319;28;20120;-73
2022/07/28 06:05:55;;;;;;;3.85;2.75;;;13.20;99.90;;;;;;5013134;28;20054;-73
2022/07/28 06:08:23;;;;;;;4.80;2.00;;;13.30;99.90;;;;;;5013498;28;20065;-68
2022/07/28 06:11:00;;;;;;;2.78;1.80;;;13.40;99.90;;;;;;5012954;28;20529;-68
2022/07/28 06:13:27;;;;;;;3.45;1.73;;;13.50;99.90;;;;;;5013738;28;20042;-68
2022/07/28 06:15:52;;;;;;;3.45;1.58;;;13.60;99.90;;;;;;5013944;28;20442;-68
2022/07/28 06:18:19;;;;;;;3.00;1.48;;;13.80;99.90;;;;;;5013200;28;20085;-68
2022/07/28 06:20:45;;;;;;;3.65;1.60;;;13.90;99.90;;;;;;5013145;28;20042;-68
2022/07/28 06:23:11;;;;;;;4.07;1.50;;;13.90;99.90;;;;;;5013173;28;20458;-68
2022/07/28 06:25:37;;;;;;;5.90;1.55;;;14.10;99.90;;;;;;5013034;28;20089;-67
2022/07/28 06:28:03;;;;;;;3.30;1.60;;;14.20;99.90;;;;;;5012962;28;20038;-68
2022/07/28 06:30:30;;;;;;;3.65;1.42;;;14.40;99.90;;;;;;5013091;28;20042;-67
2022/07/28 06:32:56;;;;;;;3.28;1.38;;;14.50;99.90;;;;;;5013065;28;20045;-68
2022/07/28 06:35:22;;;;;;;3.15;1.55;;;14.70;99.90;;;;;;5013293;28;20045;-68
2022/07/28 06:37:49;;;;;;;4.13;1.30;;;14.80;99.90;;;;;;5013168;28;20048;-67
2022/07/28 06:40:16;;;;;;;3.40;1.20;;;15.00;99.90;;;;;;5013061;28;20050;-67
2022/07/28 06:42:43;;;;;;;3.88;1.30;;;15.10;99.90;;;;;;5012827;28;20068;-68
2022/07/28 06:45:09;;;;;;;2.13;1.08;;;15.30;99.90;;;;;;5012867;28;20049;-67
2022/07/28 06:47:35;;;;;;;2.13;1.27;;;15.40;99.90;;;;;;5013626;28;20447;-67
2022/07/28 06:50:02;;;;;;;2.28;1.10;;;15.50;99.90;;;;;;5013360;28;20096;-67
2022/07/28 06:52:27;;;;;;;2.53;1.08;;;15.60;99.90;;;;;;5012845;28;20050;-67
2022/07/28 06:54:53;;;;;;;2.90;1.20;;;15.70;99.90;;;;;;5013494;28;20038;-67
2022/07/28 06:57:20;;;;;;;2.88;1.10;;;15.70;99.90;;;;;;5012876;28;20128;-67
2022/07/28 06:59:47;;;;;;;2.28;0.82;;;15.70;99.90;;;;;;5014416;28;20104;-67
2022/07/28 07:02:13;;;;;;;2.40;1.05;;;15.70;99.90;;;;;;5016568;28;20042;-67
2022/07/28 07:04:39;;;;;;;2.92;0.90;;;15.70;99.90;;;;;;5016284;28;20045;-67
2022/07/28 07:07:05;;;;;;;2.05;0.70;;;15.80;99.90;;;;;;5015885;28;20046;-67
2022/07/28 07:09:31;;;;;;;2.55;0.80;;;15.80;99.90;;;;;;5016156;28;20534;-67
2022/07/28 07:11:56;;;;;;;1.40;0.60;;;15.90;99.90;;;;;;5016106;28;20053;-69
2022/07/28 07:14:22;;;;;;;2.25;0.70;;;16.00;99.90;;;;;;5015561;28;20052;-68
2022/07/28 07:16:48;;;;;;;2.85;0.95;;;16.00;99.90;;;;;;4982198;28;20038;-68
2022/07/28 07:19:13;;;;;;;2.13;0.80;;;16.00;99.90;;;;;;5015974;28;20100;-68
2022/07/28 07:21:39;;;;;;;2.28;1.10;;;16.00;99.90;;;;;;5015908;28;20056;-68
2022/07/28 07:24:05;;;;;;;2.10;0.70;;;15.90;99.90;;;;;;4998554;28;20138;-68
2022/07/28 07:26:31;;;;;;;2.47;0.82;;;16.00;99.90;;;;;;5015824;28;20402;-67
2022/07/28 07:28:57;;;;;;;2.58;0.80;;;16.00;99.90;;;;;;5016107;28;20128;-67
2022/07/28 07:31:22;;;;;;;2.78;0.80;;;16.00;99.90;;;;;;5015432;28;20042;-67
2022/07/28 07:33:48;;;;;;;2.03;0.77;;;16.00;99.90;;;;;;5015740;28;20046;-68
2022/07/28 07:36:14;;;;;;;1.48;0.60;;;16.00;99.90;;;;;;4998173;28;20042;-67
2022/07/28 07:38:39;;;;;;;1.85;0.90;;;16.10;99.90;;;;;;5015463;28;20057;-67
2022/07/28 07:41:05;;;;;;;1.42;0.60;;;16.10;99.90;;;;;;5015449;28;20046;-67
2022/07/28 07:43:31;;;;;;;2.80;0.80;;;16.10;99.90;;;;;;5015466;28;20479;-67
2022/07/28 07:45:56;;;;;;;2.10;0.90;;;16.10;99.90;;;;;;4998593;28;20049;-67
2022/07/28 07:48:22;;;;;;;1.80;0.70;;;16.20;99.90;;;;;;5015193;28;20049;-67
2022/07/28 07:50:48;;;;;;;2.90;0.70;;;16.20;99.90;;;;;;5015917;28;20168;-67
2022/07/28 07:53:13;;;;;;;1.58;0.70;;;16.30;99.90;;;;;;5015367;28;20046;-67
2022/07/28 07:55:39;;;;;;;2.03;0.80;;;16.40;99.90;;;;;;5015312;28;20050;-67
2022/07/28 07:58:05;;;;;;;1.77;0.70;;;16.50;99.90;;;;;;5015219;28;20053;-68
2022/07/28 08:00:31;;;;;;;2.00;0.70;;;16.60;99.90;;;;;;5015258;28;20065;-67
2022/07/28 08:02:59;;;;;;;2.20;0.70;;;16.70;99.90;;;;;;5015910;28;20042;-68
2022/07/28 08:05:24;;;;;;;2.05;0.60;;;16.80;99.90;;;;;;5015086;28;20045;-67
2022/07/28 08:07:50;;;;;;;1.60;0.65;;;16.80;99.90;;;;;;5014875;28;20054;-68
2022/07/28 08:10:16;;;;;;;1.83;0.70;;;16.90;99.90;;;;;;5014398;28;20053;-69
2022/07/28 08:12:42;;;;;;;1.92;0.60;;;16.90;99.90;;;;;;5014835;28;20577;-69
2022/07/28 08:15:08;;;;;;;1.67;0.70;;;16.90;99.90;;;;;;5015401;28;20053;-69
2022/07/28 08:17:33;;;;;;;2.70;0.77;;;17.00;99.90;;;;;;4997614;28;20046;-69
2022/07/28 08:20:01;;;;;;;1.48;0.73;;;17.20;99.90;;;;;;5015109;28;20045;-69
2022/07/28 08:22:26;;;;;;;1.10;0.60;;;17.30;99.90;;;;;;5014870;28;20434;-68
2022/07/28 08:24:52;;;;;;;1.92;0.60;;;17.50;99.90;;;;;;4981048;28;20053;-69
2022/07/28 08:27:18;;;;;;;1.50;0.60;;;17.70;99.90;;;;;;4997400;28;20155;-67
2022/07/28 08:29:43;;;;;;;1.08;0.43;;;17.80;99.90;;;;;;5015206;28;20057;-67
2022/07/28 08:32:09;;;;;;;1.75;0.57;;;17.80;99.90;;;;;;4997922;28;20462;-67
2022/07/28 08:34:35;;;;;;;1.52;0.70;;;17.90;99.90;;;;;;4997017;28;20132;-67
2022/07/28 08:37:03;;;;;;;1.25;0.90;;;18.00;99.90;;;;;;5014503;28;20049;-67
2022/07/28 08:39:30;;;;;;;2.20;0.70;;;18.20;99.90;;;;;;5014524;28;20129;-67
2022/07/28 08:42:06;;;;;;;2.47;0.57;;;18.40;99.90;;;;;;5014420;28;20056;-67
2022/07/28 08:44:57;;;;;;;1.25;0.55;;;18.60;99.90;;;;;;5014208;28;20045;-67
2022/07/28 08:47:26;;;;;;;4.28;1.08;;;18.70;99.90;;;;;;5014612;28;20068;-67
2022/07/28 08:49:53;;;;;;;2.25;0.70;;;18.80;99.90;;;;;;5014552;28;20240;-67
2022/07/28 08:52:20;;;;;;;2.55;0.65;;;18.80;99.90;;;;;;5014219;28;20053;-67
2022/07/28 08:54:48;;;;;;;1.25;0.63;;;18.80;99.90;;;;;;5015033;28;20368;-67
2022/07/28 08:57:23;;;;;;;1.33;0.60;;;18.80;99.90;;;;;;5014681;28;20463;-67
2022/07/28 08:59:51;;;;;;;20.88;3.90;;;19.00;99.90;;;;;;5014105;28;20056;-67
2022/07/28 09:02:17;;;;;;;1.15;0.60;;;19.00;99.90;;;;;;5014072;28;20103;-67
2022/07/28 09:04:45;;;;;;;94.25;21.60;;;19.10;99.90;;;;;;5013778;28;20521;-67
2022/07/28 09:07:11;;;;;;;18.90;3.28;;;19.00;99.90;;;;;;5014378;28;20038;-67
2022/07/28 09:09:38;;;;;;;1.60;0.50;;;18.80;99.90;;;;;;5014029;28;20066;-67
2022/07/28 09:12:05;;;;;;;2.20;0.63;;;18.70;99.90;;;;;;5014518;28;20119;-67
2022/07/28 09:14:32;;;;;;;1.40;0.50;;;18.50;99.90;;;;;;5013843;28;20442;-67
2022/07/28 09:17:01;;;;;;;1.58;0.50;;;18.40;99.90;;;;;;5013936;28;20514;-67
2022/07/28 09:19:28;;;;;;;2.20;0.70;;;18.30;99.90;;;;;;5013837;28;20046;-67
2022/07/28 09:21:55;;;;;;;2.78;1.00;;;18.30;99.90;;;;;;4979944;28;20042;-67
2022/07/28 09:24:43;;;;;;;2.08;0.80;;;18.40;99.90;;;;;;5013809;28;20045;-67
2022/07/28 09:27:10;;;;;;;1.63;0.50;;;18.70;99.90;;;;;;5013533;28;20093;-67
2022/07/28 09:29:38;;;;;;;1.38;0.40;;;18.90;99.90;;;;;;5013522;28;20046;-67
2022/07/28 09:32:05;;;;;;;2.08;0.70;;;19.00;99.90;;;;;;5014417;28;20400;-67
2022/07/28 09:34:42;;;;;;;1.05;0.60;;;19.20;99.90;;;;;;4996199;28;20050;-67
2022/07/28 09:37:25;;;;;;;1.27;0.63;;;19.30;99.90;;;;;;5013540;28;20133;-67
2022/07/28 09:39:53;;;;;;;2.13;0.77;;;19.50;99.90;;;;;;5013356;28;20054;-69
2022/07/28 09:42:19;;;;;;;2.50;0.68;;;19.50;99.90;;;;;;5013991;28;20045;-68
2022/07/28 09:45:05;;;;;;;1.30;0.60;;;19.40;99.90;;;;;;5014166;28;20125;-68
2022/07/28 09:47:31;;;;;;;2.25;0.73;;;19.30;99.90;;;;;;5013211;28;20486;-68
2022/07/28 09:49:58;;;;;;;1.52;0.70;;;19.30;99.90;;;;;;5013710;28;20463;-69
2022/07/28 09:52:35;;;;;;;1.73;0.50;;;19.20;99.90;;;;;;4996359;28;20050;-68
2022/07/28 09:55:10;;;;;;;1.40;0.60;;;19.30;99.90;;;;;;5013477;28;20062;-68
2022/07/28 09:57:39;;;;;;;1.60;0.63;;;19.30;99.90;;;;;;5013761;28;20050;-68
2022/07/28 10:00:12;;;;;;;1.92;0.50;;;19.40;99.90;;;;;;5013263;28;20053;-68
2022/07/28 10:02:38;;;;;;;2.85;0.60;;;19.40;99.90;;;;;;5013878;28;20404;-68
2022/07/28 10:05:05;;;;;;;1.70;0.50;;;19.30;99.90;;;;;;5013827;28;20132;-68
2022/07/28 10:07:33;;;;;;;1.10;0.40;;;19.40;99.90;;;;;;5012917;28;20146;-68
2022/07/28 10:09:58;;;;;;;2.65;0.65;;;19.50;99.90;;;;;;4996228;28;20120;-68
2022/07/28 10:12:33;;;;;;;1.63;0.70;;;19.50;99.90;;;;;;5013261;28;20049;-68
2022/07/28 10:18:02;;;;;;;2.20;0.90;;;19.70;99.90;;;;;;4967156;28;20057;-68
2022/07/28 10:20:28;;;;;;;1.73;0.60;;;19.70;99.90;;;;;;5012673;28;20471;-68
2022/07/28 10:23:00;;;;;;;2.67;0.80;;;19.60;99.90;;;;;;5013891;28;20053;-68
2022/07/28 10:25:29;;;;;;;1.42;0.70;;;19.60;99.90;;;;;;5012845;28;20557;-68
2022/07/28 10:27:58;;;;;;;1.20;0.60;;;19.70;99.90;;;;;;5012596;28;20087;-68
2022/07/28 10:30:27;;;;;;;3.50;0.80;;;19.70;99.90;;;;;;5012942;28;20133;-68
2022/07/28 10:32:56;;;;;;;1.73;0.43;;;19.80;99.90;;;;;;5013014;28;20042;-69
2022/07/28 10:35:24;;;;;;;1.75;0.52;;;19.70;99.90;;;;;;5015988;28;20052;-68
2022/07/28 10:37:52;;;;;;;1.25;0.60;;;19.50;99.90;;;;;;5017544;28;20375;-67
2022/07/28 10:40:24;;;;;;;2.03;0.55;;;19.40;99.90;;;;;;5016627;28;20125;-68
2022/07/28 10:42:52;;;;;;;2.05;0.60;;;19.30;99.90;;;;;;5017167;28;20363;-68
2022/07/28 10:45:17;;;;;;;1.98;0.60;;;19.20;99.90;;;;;;5016641;28;20096;-67
2022/07/28 10:47:44;;;;;;;1.52;0.60;;;19.30;99.90;;;;;;5016378;28;20074;-67
2022/07/28 10:50:10;;;;;;;1.63;0.57;;;19.40;99.90;;;;;;4999136;28;20054;-67
2022/07/28 10:52:39;;;;;;;1.95;0.60;;;19.40;99.90;;;;;;5016501;28;20053;-67
2022/07/28 10:55:39;;;;;;;1.13;0.60;;;19.50;99.90;;;;;;5016315;28;20081;-67
2022/07/28 10:58:07;;;;;;;0.90;0.50;;;19.70;99.90;;;;;;5016440;28;20092;-67
2022/07/28 11:00:39;;;;;;;1.25;0.60;;;20.00;99.90;;;;;;5016365;28;20049;-67
2022/07/28 11:03:06;;;;;;;1.10;0.60;;;20.20;99.90;;;;;;5016337;28;20061;-67
2022/07/28 11:05:32;;;;;;;2.30;0.50;;;20.30;99.90;;;;;;5015868;28;20516;-67
2022/07/28 11:08:00;;;;;;;0.90;0.50;;;20.20;99.90;;;;;;5016119;28;20057;-67
2022/07/28 11:10:28;;;;;;;2.00;0.60;;;20.20;99.90;;;;;;5016152;28;20092;-70
2022/07/28 11:12:57;;;;;;;1.15;0.50;;;20.20;99.90;;;;;;4998762;28;20046;-69
2022/07/28 11:15:33;;;;;;;1.05;0.47;;;20.20;99.90;;;;;;5016017;28;20045;-68
2022/07/28 11:18:08;;;;;;;1.17;0.60;;;20.20;99.90;;;;;;4999533;28;20183;-69
2022/07/28 11:20:55;;;;;;;0.73;0.40;;;20.40;99.90;;;;;;5015938;28;20053;-69
2022/07/28 11:23:45;;;;;;;1.52;0.60;;;20.50;99.90;;;;;;5016651;28;20046;-70
2022/07/28 11:26:20;;;;;;;2.75;0.60;;;20.70;99.90;;;;;;5016371;28;20054;-70
2022/07/28 11:29:04;;;;;;;1.20;0.70;;;20.70;99.90;;;;;;5015845;28;20046;-69
2022/07/28 11:31:47;;;;;;;1.55;0.70;;;20.80;99.90;;;;;;5015750;28;20128;-68
2022/07/28 11:34:18;;;;;;;1.50;0.63;;;20.70;99.90;;;;;;5015579;28;20100;-68
2022/07/28 11:37:08;;;;;;;2.95;0.70;;;20.70;99.90;;;;;;5015678;28;20038;-69
2022/07/28 11:39:41;;;;;;;1.30;0.70;;;20.80;99.90;;;;;;5016177;28;20465;-69
2022/07/28 11:42:31;;;;;;;1.63;0.60;;;20.70;99.90;;;;;;5015522;28;20196;-69
2022/07/28 11:45:17;;;;;;;2.03;0.60;;;20.70;99.90;;;;;;5015399;28;20129;-69
2022/07/28 11:47:42;;;;;;;1.58;0.93;;;20.70;99.90;;;;;;5015528;28;20049;-69
2022/07/28 11:50:16;;;;;;;2.08;0.50;;;20.60;99.90;;;;;;4997897;28;20045;-69
2022/07/28 11:52:58;;;;;;;1.38;0.60;;;20.60;99.90;;;;;;5015818;28;20056;-69
2022/07/28 11:55:24;;;;;;;2.95;0.80;;;20.60;99.90;;;;;;5015683;28;20046;-69
2022/07/28 11:57:51;;;;;;;1.05;0.60;;;20.60;99.90;;;;;;5014621;28;20486;-69
2022/07/28 12:00:21;;;;;;;1.88;0.60;;;20.70;99.90;;;;;;5015725;28;20151;-69
2022/07/28 12:02:48;;;;;;;3.05;0.60;;;20.70;99.90;;;;;;5015655;28;20049;-69
2022/07/28 12:05:16;;;;;;;2.45;0.60;;;20.60;99.90;;;;;;5014822;28;20046;-69
2022/07/28 12:07:44;;;;;;;0.80;0.40;;;20.60;99.90;;;;;;5015376;28;20467;-68
2022/07/28 12:10:22;;;;;;;1.27;0.60;;;20.70;99.90;;;;;;5015803;28;20057;-68
2022/07/28 12:12:56;;;;;;;1.45;0.50;;;20.80;99.90;;;;;;5014812;28;20053;-68
2022/07/28 12:15:22;;;;;;;1.35;0.40;;;20.90;99.90;;;;;;4997368;28;20054;-68
2022/07/28 12:17:48;;;;;;;1.23;0.50;;;20.90;99.90;;;;;;5015312;28;20046;-69
2022/07/28 12:20:16;;;;;;;1.70;0.52;;;20.90;99.90;;;;;;5014407;28;20042;-69
2022/07/28 12:23:06;;;;;;;1.80;0.70;;;20.90;99.90;;;;;;5015147;28;20046;-69
2022/07/28 12:25:42;;;;;;;1.15;0.55;;;21.00;99.90;;;;;;5015101;28;20085;-69
2022/07/28 12:28:21;;;;;;;0.75;0.40;;;21.10;99.90;;;;;;5014858;28;20081;-69
2022/07/28 12:30:50;;;;;;;1.42;0.70;;;21.20;99.90;;;;;;5015104;28;20386;-69
2022/07/28 12:33:25;;;;;;;2.17;0.60;;;21.10;99.90;;;;;;4996823;28;20060;-69
2022/07/28 12:35:54;;;;;;;2.80;0.63;;;21.10;99.90;;;;;;5014638;28;20486;-68
2022/07/28 12:38:21;;;;;;;1.33;0.50;;;21.10;99.90;;;;;;5014465;28;20434;-68
2022/07/28 12:40:47;;;;;;;1.80;0.60;;;21.10;99.90;;;;;;5014853;28;20359;-68
2022/07/28 12:43:19;;;;;;;1.60;0.50;;;21.20;99.90;;;;;;5014243;28;20056;-67
2022/07/28 12:45:46;;;;;;;2.30;0.60;;;21.20;99.90;;;;;;5014312;28;20045;-68
2022/07/28 12:48:12;;;;;;;1.38;0.63;;;21.10;99.90;;;;;;5014258;28;20130;-68
2022/07/28 12:50:39;;;;;;;2.75;0.50;;;21.00;99.90;;;;;;5014267;28;20050;-68
2022/07/28 12:53:07;;;;;;;2.33;0.60;;;20.90;99.90;;;;;;5014294;28;20050;-68
2022/07/28 12:55:33;;;;;;;3.25;0.65;;;20.80;99.90;;;;;;5014223;28;20061;-68
2022/07/28 12:57:59;;;;;;;1.58;0.60;;;20.70;99.90;;;;;;5013841;28;20041;-68
2022/07/28 13:00:30;;;;;;;0.93;0.50;;;20.60;99.90;;;;;;5013992;28;20426;-68
2022/07/28 13:02:58;;;;;;;1.45;0.65;;;20.60;99.90;;;;;;5014028;28;20070;-68